Time;durP1;ratioP1;P1;durP2;ratioP2;P2;SDS_P1;SDS_P2;PMS_P1;PMS_P2;Temp;Humidity;BMP_temperature;BMP_pressure;BME280_temperature;BME280_humidity;BME280_pressure;Samples;Min_cycle;Max_cycle;Signal;HPM_P1;HPM_P2
2023/09/24 00:01:35;;;;;;;;;;;;;;;18.00;55.61;101964.72;4230572;28;19932;-58
2023/09/24 00:03:37;;;;;;;;;;;;;;;17.99;55.36;101965.66;4230662;28;19923;-58
2023/09/24 00:05:41;;;;;;;;;;;;;;;17.99;55.34;101973.66;4230384;28;20282;-59
2023/09/24 00:07:43;;;;;;;;;;;;;;;17.97;55.33;101981.72;4230508;28;19924;-59
2023/09/24 00:09:45;;;;;;;;;;;;;;;17.97;55.30;101980.81;4230364;28;19975;-59
2023/09/24 00:11:47;;;;;;;;;;;;;;;17.95;55.61;101972.91;4230424;28;19989;-59
2023/09/24 00:13:48;;;;;;;;;;;;;;;17.96;55.51;101979.09;4230314;28;19927;-59
2023/09/24 00:15:50;;;;;;;;;;;;;;;17.95;55.52;101975.59;4230193;28;19924;-59
2023/09/24 00:17:52;;;;;;;;;;;;;;;17.95;55.61;101978.25;4212059;28;19924;-59
2023/09/24 00:19:54;;;;;;;;;;;;;;;17.93;55.35;101977.41;4230260;28;19924;-59
2023/09/24 00:21:55;;;;;;;;;;;;;;;17.93;55.48;101969.44;4233546;28;20409;-59
2023/09/24 00:23:57;;;;;;;;;;;;;;;17.94;55.58;101972.97;4233769;28;19974;-59
2023/09/24 00:25:59;;;;;;;;;;;;;;;17.92;55.68;101964.19;4233849;28;19927;-58
2023/09/24 00:28:01;;;;;;;;;;;;;;;17.92;55.26;101972.16;4233678;28;19966;-59
2023/09/24 00:30:04;;;;;;;;;;;;;;;17.91;55.58;101971.31;4233883;28;19942;-59
2023/09/24 00:32:05;;;;;;;;;;;;;;;17.91;55.60;101973.97;4233643;28;19935;-59
2023/09/24 00:34:08;;;;;;;;;;;;;;;17.90;55.44;101985.56;4249538;27;19961;-58
2023/09/24 00:36:09;;;;;;;;;;;;;;;17.89;55.57;101983.81;4233745;28;19928;-58
2023/09/24 00:38:11;;;;;;;;;;;;;;;17.87;55.67;101983.91;4215339;28;19928;-58
2023/09/24 00:40:13;;;;;;;;;;;;;;;17.87;55.80;101989.22;4233686;28;20331;-59
2023/09/24 00:42:14;;;;;;;;;;;;;;;17.87;55.47;101993.66;4233722;28;19950;-58
2023/09/24 00:44:16;;;;;;;;;;;;;;;17.87;55.58;101996.31;4233555;28;20270;-58
2023/09/24 00:46:21;;;;;;;;;;;;;;;17.86;55.83;102000.81;4233527;28;20355;-58
2023/09/24 00:48:28;;;;;;;;;;;;;;;17.85;55.66;102000.84;4233533;28;19977;-58
2023/09/24 00:50:33;;;;;;;;;;;;;;;17.85;55.76;101995.53;4233479;28;20409;-58
2023/09/24 00:52:35;;;;;;;;;;;;;;;17.84;55.84;101988.50;4233359;28;19924;-59
2023/09/24 00:54:38;;;;;;;;;;;;;;;17.84;55.61;101991.16;4233222;28;19954;-58
2023/09/24 00:56:40;;;;;;;;;;;;;;;17.83;55.80;101992.94;4215292;28;19935;-59
2023/09/24 00:58:42;;;;;;;;;;;;;;;17.82;55.70;101993.88;4233553;28;19927;-58
2023/09/24 01:00:46;;;;;;;;;;;;;;;17.82;55.67;101996.53;4233277;28;19924;-58
2023/09/24 01:02:50;;;;;;;;;;;;;;;17.81;55.68;101991.28;4233140;28;19923;-58
2023/09/24 01:04:53;;;;;;;;;;;;;;;17.82;55.94;101993.88;4233367;28;19924;-58
2023/09/24 01:06:56;;;;;;;;;;;;;;;17.84;55.94;101991.16;4233141;28;20468;-58
2023/09/24 01:08:58;;;;;;;;;;;;;;;17.86;55.91;101991.94;4232983;28;19927;-57
2023/09/24 01:11:01;;;;;;;;;;;;;;;17.86;56.12;101984.84;4233433;28;20411;-58
2023/09/24 01:13:05;;;;;;;;;;;;;;;17.87;55.84;101985.69;4214809;28;20049;-59
2023/09/24 01:15:11;;;;;;;;;;;;;;;17.88;56.14;101990.06;4233013;28;19924;-59
2023/09/24 01:17:14;;;;;;;;;;;;;;;17.88;56.08;101988.25;4232953;28;19930;-59
2023/09/24 01:19:15;;;;;;;;;;;;;;;17.89;56.15;101984.66;4232825;28;20010;-58
2023/09/24 01:21:17;;;;;;;;;;;;;;;17.89;55.78;101989.16;4232961;28;19924;-59
2023/09/24 01:23:19;;;;;;;;;;;;;;;17.88;55.98;101988.25;4232634;28;19935;-58
2023/09/24 01:25:21;;;;;;;;;;;;;;;17.89;55.98;101989.16;4232890;28;19923;-58
2023/09/24 01:27:24;;;;;;;;;;;;;;;17.88;55.66;101990.94;4232990;28;20371;-58
2023/09/24 01:29:26;;;;;;;;;;;;;;;17.88;55.84;101995.41;4232904;28;19931;-58
2023/09/24 01:31:30;;;;;;;;;;;;;;;17.87;55.67;101996.31;4232669;28;19924;-58
2023/09/24 01:33:32;;;;;;;;;;;;;;;17.86;55.60;101991.94;4232640;28;19930;-58
2023/09/24 01:35:34;;;;;;;;;;;;;;;17.85;55.88;101998.19;4232920;28;19930;-58
2023/09/24 01:37:38;;;;;;;;;;;;;;;17.84;55.88;101993.81;4232637;28;19947;-58
2023/09/24 01:39:39;;;;;;;;;;;;;;;17.83;55.64;101997.41;4248683;27;20357;-59
2023/09/24 01:41:41;;;;;;;;;;;;;;;17.82;56.05;102001.00;4232819;28;19924;-58
2023/09/24 01:43:43;;;;;;;;;;;;;;;17.81;55.96;102005.47;4232703;28;19930;-59
2023/09/24 01:45:45;;;;;;;;;;;;;;;17.82;55.83;102006.31;4232756;28;19924;-58
2023/09/24 01:47:49;;;;;;;;;;;;;;;17.80;55.77;101994.88;4232721;28;20347;-58
2023/09/24 01:49:52;;;;;;;;;;;;;;;17.79;56.10;101991.38;4232384;28;20003;-58
2023/09/24 01:51:53;;;;;;;;;;;;;;;17.79;55.91;102001.13;4232239;28;20022;-58
2023/09/24 01:53:57;;;;;;;;;;;;;;;17.78;55.79;102000.28;4232576;28;20010;-59
2023/09/24 01:56:01;;;;;;;;;;;;;;;17.77;56.01;102001.22;4232453;28;19953;-59
2023/09/24 01:58:03;;;;;;;;;;;;;;;17.76;55.80;101991.50;4232622;28;19928;-58
2023/09/24 02:00:11;;;;;;;;;;;;;;;17.76;55.91;101995.97;4232415;28;19977;-59
2023/09/24 02:02:13;;;;;;;;;;;;;;;17.75;55.83;102000.41;4232405;28;19924;-59
2023/09/24 02:04:16;;;;;;;;;;;;;;;17.73;55.86;101994.31;4232522;28;19924;-59
2023/09/24 02:06:17;;;;;;;;;;;;;;;17.73;55.82;101999.63;4232043;28;20342;-59
2023/09/24 02:08:19;;;;;;;;;;;;;;;17.63;55.92;101983.22;4232247;28;19924;-58
2023/09/24 02:10:21;;;;;;;;;;;;;;;17.72;55.97;102003.22;4232383;28;20003;-58
2023/09/24 02:12:26;;;;;;;;;;;;;;;17.71;55.95;101999.69;4231897;28;19927;-58
2023/09/24 02:14:28;;;;;;;;;;;;;;;17.71;55.93;102009.47;4232200;28;19969;-58
2023/09/24 02:16:30;;;;;;;;;;;;;;;17.69;55.63;102004.22;4232240;28;20010;-59
2023/09/24 02:18:32;;;;;;;;;;;;;;;17.71;56.04;102017.44;4231919;28;19923;-59
2023/09/24 02:20:35;;;;;;;;;;;;;;;17.69;55.93;102009.56;4231703;28;19928;-58
2023/09/24 02:22:37;;;;;;;;;;;;;;;17.68;55.99;102007.81;4231738;28;19923;-58
2023/09/24 02:24:40;;;;;;;;;;;;;;;17.67;56.02;102006.09;4248113;27;19945;-59
2023/09/24 02:26:42;;;;;;;;;;;;;;;17.68;55.91;102006.94;4232136;28;19953;-59
2023/09/24 02:28:44;;;;;;;;;;;;;;;17.67;56.07;102010.56;4231647;28;19923;-59
2023/09/24 02:30:46;;;;;;;;;;;;;;;17.67;56.04;102013.22;4231828;28;20015;-58
2023/09/24 02:32:48;;;;;;;;;;;;;;;17.66;55.87;102016.81;4232019;28;19923;-58
2023/09/24 02:34:50;;;;;;;;;;;;;;;17.64;56.09;102006.22;4231582;28;19951;-58
2023/09/24 02:36:53;;;;;;;;;;;;;;;17.64;56.00;102005.34;4231848;28;20007;-57
2023/09/24 02:38:56;;;;;;;;;;;;;;;17.64;56.04;102006.22;4231897;28;19923;-58
2023/09/24 02:40:58;;;;;;;;;;;;;;;17.63;55.76;102007.16;4231832;28;19930;-58
2023/09/24 02:43:00;;;;;;;;;;;;;;;17.63;55.81;102000.97;4231195;28;19923;-58
2023/09/24 02:45:02;;;;;;;;;;;;;;;17.62;55.93;102007.22;4231670;28;19923;-58
2023/09/24 02:47:06;;;;;;;;;;;;;;;17.62;55.75;102009.88;4231657;28;19965;-57
2023/09/24 02:49:08;;;;;;;;;;;;;;;17.61;56.10;102011.69;4231150;28;19924;-57
2023/09/24 02:51:10;;;;;;;;;;;;;;;17.60;55.99;102014.41;4231626;28;19994;-58
2023/09/24 02:53:11;;;;;;;;;;;;;;;17.60;56.08;102014.41;4231695;28;19958;-58
2023/09/24 02:55:13;;;;;;;;;;;;;;;17.60;56.07;102017.09;4231474;28;19931;-58
2023/09/24 02:57:15;;;;;;;;;;;;;;;17.59;56.07;102020.66;4231713;28;19930;-58
2023/09/24 02:59:17;;;;;;;;;;;;;;;17.58;55.94;102017.13;4247390;27;19923;-59
2023/09/24 03:01:20;;;;;;;;;;;;;;;17.58;55.73;102024.25;4231596;28;19973;-58
2023/09/24 03:03:22;;;;;;;;;;;;;;;17.58;56.05;102026.91;4231233;28;19930;-58
2023/09/24 03:05:24;;;;;;;;;;;;;;;17.55;56.03;102020.78;4231480;28;19984;-58
2023/09/24 03:07:26;;;;;;;;;;;;;;;17.56;56.06;102017.19;4231332;28;20351;-58
2023/09/24 03:09:28;;;;;;;;;;;;;;;17.54;55.98;102019.06;4231270;28;19924;-58
2023/09/24 03:11:30;;;;;;;;;;;;;;;17.55;55.75;102017.28;4231480;28;19959;-58
2023/09/24 03:13:31;;;;;;;;;;;;;;;17.54;56.17;102016.41;4231421;28;19923;-58
2023/09/24 03:15:34;;;;;;;;;;;;;;;17.54;55.89;102007.56;4231288;28;19928;-58
2023/09/24 03:17:36;;;;;;;;;;;;;;;17.53;55.73;102009.38;4230888;28;19931;-59
2023/09/24 03:19:37;;;;;;;;;;;;;;;17.53;55.98;102014.69;4231252;28;19930;-58
2023/09/24 03:21:39;;;;;;;;;;;;;;;17.53;55.92;102019.13;4230958;28;19931;-59
2023/09/24 03:23:41;;;;;;;;;;;;;;;17.52;55.99;102017.41;4231176;28;20018;-59
2023/09/24 03:25:44;;;;;;;;;;;;;;;17.51;56.03;102029.84;4231147;28;19923;-59
2023/09/24 03:27:47;;;;;;;;;;;;;;;17.50;56.18;102028.13;4231005;28;20014;-58
2023/09/24 03:29:48;;;;;;;;;;;;;;;17.50;56.10;102028.13;4246886;27;19934;-59
2023/09/24 03:31:50;;;;;;;;;;;;;;;17.49;56.00;102029.03;4231107;28;20018;-58
2023/09/24 03:33:52;;;;;;;;;;;;;;;17.49;56.08;102031.69;4230768;28;19959;-58
2023/09/24 03:35:53;;;;;;;;;;;;;;;17.48;56.16;102029.97;4230981;28;20373;-58
2023/09/24 03:37:56;;;;;;;;;;;;;;;17.47;56.21;102022.91;4230954;28;19931;-58
2023/09/24 03:39:58;;;;;;;;;;;;;;;17.46;56.17;102023.88;4230875;28;19935;-59
2023/09/24 03:41:59;;;;;;;;;;;;;;;17.46;56.20;102031.84;4230966;28;19923;-58
2023/09/24 03:44:02;;;;;;;;;;;;;;;17.45;56.15;102026.59;4230756;28;19931;-59
2023/09/24 03:46:03;;;;;;;;;;;;;;;17.45;56.17;102026.59;4212797;28;20445;-59
2023/09/24 03:48:05;;;;;;;;;;;;;;;17.44;56.16;102033.72;4230353;28;20446;-59
2023/09/24 03:50:10;;;;;;;;;;;;;;;17.44;56.13;102025.72;4230741;28;20405;-59
2023/09/24 03:52:12;;;;;;;;;;;;;;;17.44;56.02;102028.38;4230604;28;19923;-58
2023/09/24 03:54:13;;;;;;;;;;;;;;;17.44;56.15;102027.50;4230504;28;19923;-58
2023/09/24 03:56:15;;;;;;;;;;;;;;;17.44;56.10;102025.72;4230073;28;19924;-59
2023/09/24 03:58:17;;;;;;;;;;;;;;;17.43;56.23;102026.66;4230695;28;19930;-58
2023/09/24 04:00:20;;;;;;;;;;;;;;;17.42;55.91;102027.59;4230768;28;19972;-59
2023/09/24 04:02:23;;;;;;;;;;;;;;;17.41;55.76;102031.16;4230449;28;19955;-59
2023/09/24 04:04:26;;;;;;;;;;;;;;;17.42;56.04;102040.03;4230420;28;19934;-59
2023/09/24 04:06:27;;;;;;;;;;;;;;;17.42;55.73;102040.03;4230643;28;19923;-59
2023/09/24 04:08:29;;;;;;;;;;;;;;;17.42;55.92;102034.72;4230436;28;19927;-59
2023/09/24 04:10:31;;;;;;;;;;;;;;;17.40;56.15;102040.09;4230420;28;20308;-59
2023/09/24 04:12:34;;;;;;;;;;;;;;;17.40;56.16;102040.09;4230599;28;19924;-59
2023/09/24 04:14:36;;;;;;;;;;;;;;;17.39;56.13;102038.38;4230654;28;20388;-58
2023/09/24 04:16:38;;;;;;;;;;;;;;;17.38;56.06;102034.81;4230268;28;19923;-59
2023/09/24 04:18:43;;;;;;;;;;;;;;;17.38;56.10;102031.31;4230587;28;20000;-59
2023/09/24 04:20:45;;;;;;;;;;;;;;;17.37;56.06;102041.06;4230440;28;19923;-59
2023/09/24 04:22:47;;;;;;;;;;;;;;;17.37;56.13;102038.41;4212171;28;19931;-58
2023/09/24 04:24:54;;;;;;;;;;;;;;;17.36;56.10;102036.72;4230474;28;19931;-59
2023/09/24 04:26:56;;;;;;;;;;;;;;;17.37;56.16;102032.25;4230511;28;19924;-59
2023/09/24 04:28:58;;;;;;;;;;;;;;;17.36;55.77;102035.81;4230197;28;19928;-58
2023/09/24 04:30:59;;;;;;;;;;;;;;;17.36;56.07;102035.81;4229976;28;19977;-58
2023/09/24 04:33:02;;;;;;;;;;;;;;;17.35;56.00;102034.97;4230529;28;20392;-58
2023/09/24 04:35:05;;;;;;;;;;;;;;;17.34;56.17;102035.91;4230445;28;19931;-58
2023/09/24 04:37:06;;;;;;;;;;;;;;;17.34;56.12;102027.94;4230331;28;20346;-58
2023/09/24 04:39:11;;;;;;;;;;;;;;;17.34;55.99;102032.38;4230424;28;20599;-58
2023/09/24 04:41:15;;;;;;;;;;;;;;;17.34;56.03;102033.25;4230153;28;19947;-58
2023/09/24 04:43:18;;;;;;;;;;;;;;;17.33;56.13;102030.66;4230176;28;19924;-58
2023/09/24 04:45:19;;;;;;;;;;;;;;;17.33;56.20;102035.97;4230165;28;19934;-58
2023/09/24 04:47:21;;;;;;;;;;;;;;;17.32;56.05;102035.09;4230320;28;19935;-58
2023/09/24 04:49:23;;;;;;;;;;;;;;;17.32;55.90;102026.25;4230076;28;19924;-58
2023/09/24 04:51:24;;;;;;;;;;;;;;;17.31;56.19;102022.72;4230286;28;19928;-58
2023/09/24 04:53:26;;;;;;;;;;;;;;;17.32;56.10;102026.25;4230299;28;20010;-58
2023/09/24 04:55:27;;;;;;;;;;;;;;;17.31;55.95;102038.69;4230263;28;19924;-58
2023/09/24 04:57:29;;;;;;;;;;;;;;;17.31;56.05;102035.16;4230070;28;19969;-58
2023/09/24 04:59:31;;;;;;;;;;;;;;;17.29;56.11;102021.06;4229980;28;19927;-58
2023/09/24 05:01:32;;;;;;;;;;;;;;;17.30;55.88;102028.13;4230244;28;20430;-58
2023/09/24 05:03:35;;;;;;;;;;;;;;;17.30;56.00;102028.97;4229927;28;19977;-57
2023/09/24 05:05:40;;;;;;;;;;;;;;;17.30;56.11;102025.47;4230329;28;19959;-58
2023/09/24 05:07:42;;;;;;;;;;;;;;;17.29;55.87;102034.34;4232399;28;19924;-58
2023/09/24 05:09:44;;;;;;;;;;;;;;;17.29;55.96;102034.34;4233232;28;19923;-58
2023/09/24 05:11:46;;;;;;;;;;;;;;;17.28;56.16;102036.16;4233214;28;19924;-58
2023/09/24 05:13:47;;;;;;;;;;;;;;;17.27;55.85;102038.88;4232923;28;19924;-58
2023/09/24 05:15:54;;;;;;;;;;;;;;;17.28;55.89;102035.28;4232983;28;20403;-57
2023/09/24 05:17:55;;;;;;;;;;;;;;;17.27;55.79;102029.13;4233111;28;19977;-58
2023/09/24 05:19:57;;;;;;;;;;;;;;;17.27;56.07;102038.88;4233129;28;20466;-58
2023/09/24 05:21:59;;;;;;;;;;;;;;;17.25;55.89;102041.59;4232801;28;20073;-58
2023/09/24 05:24:00;;;;;;;;;;;;;;;17.25;56.02;102030.97;4232959;28;19923;-58
2023/09/24 05:26:02;;;;;;;;;;;;;;;17.26;55.92;102034.50;4232806;28;19934;-58
2023/09/24 05:28:03;;;;;;;;;;;;;;;17.24;56.11;102032.78;4232677;28;20249;-58
2023/09/24 05:30:07;;;;;;;;;;;;;;;17.23;56.00;102039.03;4232866;28;19953;-58
2023/09/24 05:32:09;;;;;;;;;;;;;;;17.24;56.08;102035.44;4232922;28;19923;-58
2023/09/24 05:34:11;;;;;;;;;;;;;;;17.24;56.06;102040.75;4232758;28;20304;-58
2023/09/24 05:36:13;;;;;;;;;;;;;;;17.23;55.91;102043.44;4232840;28;19932;-58
2023/09/24 05:38:14;;;;;;;;;;;;;;;17.24;56.12;102042.53;4232900;28;19923;-58
2023/09/24 05:40:16;;;;;;;;;;;;;;;17.24;55.75;102045.19;4232760;28;19924;-58
2023/09/24 05:42:17;;;;;;;;;;;;;;;17.22;55.92;102047.91;4232590;28;19931;-58
2023/09/24 05:44:20;;;;;;;;;;;;;;;17.22;55.99;102041.75;4232443;28;19928;-58
2023/09/24 05:46:22;;;;;;;;;;;;;;;17.21;55.91;102048.84;4232463;28;19927;-58
2023/09/24 05:48:23;;;;;;;;;;;;;;;17.20;56.19;102044.44;4232616;28;19928;-59
2023/09/24 05:50:25;;;;;;;;;;;;;;;17.21;56.19;102045.34;4232511;28;20381;-59
2023/09/24 05:52:27;;;;;;;;;;;;;;;17.20;56.06;102052.44;4232513;28;20003;-58
2023/09/24 05:54:28;;;;;;;;;;;;;;;17.21;56.09;102055.97;4232574;28;19943;-58
2023/09/24 05:56:30;;;;;;;;;;;;;;;17.20;56.09;102060.41;4232630;28;20460;-58
2023/09/24 05:58:31;;;;;;;;;;;;;;;17.17;56.03;102063.22;4231975;28;19928;-58
2023/09/24 06:00:37;;;;;;;;;;;;;;;17.19;56.06;102061.34;4232472;28;19934;-58
2023/09/24 06:02:39;;;;;;;;;;;;;;;17.20;55.78;102060.41;4232463;28;19924;-58
2023/09/24 06:04:40;;;;;;;;;;;;;;;17.19;55.80;102057.81;4231947;28;19923;-58
2023/09/24 06:06:42;;;;;;;;;;;;;;;17.19;55.74;102064.03;4232377;28;19928;-58
2023/09/24 06:08:44;;;;;;;;;;;;;;;17.18;56.04;102072.03;4232103;28;19970;-58
2023/09/24 06:10:46;;;;;;;;;;;;;;;17.18;56.14;102067.59;4232271;28;19924;-59
2023/09/24 06:12:48;;;;;;;;;;;;;;;17.18;55.74;102064.06;4231928;28;20433;-58
2023/09/24 06:14:50;;;;;;;;;;;;;;;17.18;55.94;102067.59;4232272;28;19957;-58
2023/09/24 06:16:51;;;;;;;;;;;;;;;17.19;55.66;102065.78;4231677;28;19928;-59
2023/09/24 06:18:53;;;;;;;;;;;;;;;17.19;55.66;102069.34;4231327;28;19928;-58
2023/09/24 06:20:56;;;;;;;;;;;;;;;17.18;55.45;102064.06;4232055;28;19946;-58
2023/09/24 06:22:58;;;;;;;;;;;;;;;17.18;55.71;102072.03;4213687;28;20302;-58
2023/09/24 06:24:59;;;;;;;;;;;;;;;17.16;55.38;102071.25;4232340;28;19930;-58
2023/09/24 06:27:01;;;;;;;;;;;;;;;17.16;55.73;102082.75;4231837;28;19955;-59
2023/09/24 06:29:02;;;;;;;;;;;;;;;17.16;55.75;102085.41;4232032;28;19928;-58
2023/09/24 06:31:12;;;;;;;;;;;;;;;17.15;55.63;102086.31;4231896;28;19928;-58
2023/09/24 06:33:14;;;;;;;;;;;;;;;17.15;55.81;102086.31;4232093;28;19928;-58
2023/09/24 06:35:15;;;;;;;;;;;;;;;17.14;55.68;102095.22;4231754;28;19927;-58
2023/09/24 06:37:17;;;;;;;;;;;;;;;17.15;55.40;102096.09;4232073;28;19953;-59
2023/09/24 06:39:18;;;;;;;;;;;;;;;17.13;55.39;102092.63;4231850;28;19937;-58
2023/09/24 06:41:20;;;;;;;;;;;;;;;17.14;55.46;102092.56;4231431;28;19930;-59
2023/09/24 06:43:24;;;;;;;;;;;;;;;17.13;55.57;102084.66;4231659;28;19928;-58
2023/09/24 06:45:27;;;;;;;;;;;;;;;17.13;55.65;102092.63;4230616;28;19957;-58
2023/09/24 06:47:29;;;;;;;;;;;;;;;17.12;55.79;102093.56;4231596;28;20372;-58
2023/09/24 06:49:31;;;;;;;;;;;;;;;17.12;55.32;102088.25;4231702;28;20015;-58
2023/09/24 06:51:32;;;;;;;;;;;;;;;17.11;55.69;102087.38;4231704;28;19927;-58
2023/09/24 06:53:34;;;;;;;;;;;;;;;17.11;55.57;102087.38;4231814;28;19928;-58
2023/09/24 06:55:39;;;;;;;;;;;;;;;17.12;55.59;102093.56;4231364;28;19976;-59
2023/09/24 06:57:40;;;;;;;;;;;;;;;17.11;55.58;102090.06;4231676;28;20014;-58
2023/09/24 06:59:42;;;;;;;;;;;;;;;17.11;55.51;102084.72;4231502;28;19927;-58
2023/09/24 07:01:43;;;;;;;;;;;;;;;17.11;55.60;102090.06;4231603;28;19925;-59
2023/09/24 07:03:47;;;;;;;;;;;;;;;17.11;55.59;102092.72;4231545;28;20433;-58
2023/09/24 07:05:51;;;;;;;;;;;;;;;17.12;55.54;102082.94;4231465;28;19928;-59
2023/09/24 07:07:53;;;;;;;;;;;;;;;17.11;55.50;102090.06;4231499;28;20412;-59
2023/09/24 07:09:54;;;;;;;;;;;;;;;17.12;55.64;102093.56;4231212;28;19935;-59
2023/09/24 07:11:56;;;;;;;;;;;;;;;17.11;55.66;102089.16;4231299;28;20389;-58
2023/09/24 07:13:57;;;;;;;;;;;;;;;17.11;55.61;102090.06;4231255;28;20010;-58
2023/09/24 07:15:59;;;;;;;;;;;;;;;17.12;55.33;102093.56;4231191;28;19927;-58
2023/09/24 07:18:02;;;;;;;;;;;;;;;17.12;55.64;102085.59;4231317;28;19996;-58
2023/09/24 07:20:05;;;;;;;;;;;;;;;17.13;55.35;102089.97;4231048;28;19923;-58
2023/09/24 07:22:06;;;;;;;;;;;;;;;17.13;55.48;102093.50;4230926;28;19973;-59
2023/09/24 07:24:08;;;;;;;;;;;;;;;17.15;55.21;102093.44;4230918;28;19955;-58
2023/09/24 07:26:10;;;;;;;;;;;;;;;17.15;55.52;102096.09;4231039;28;19968;-56
2023/09/24 07:28:11;;;;;;;;;;;;;;;17.15;55.61;102099.63;4231260;28;20341;-57
2023/09/24 07:30:14;;;;;;;;;;;;;;;17.02;55.15;102078.00;4230907;28;20393;-57
2023/09/24 07:32:15;;;;;;;;;;;;;;;17.17;55.11;102094.22;4230868;28;20305;-58
2023/09/24 07:34:17;;;;;;;;;;;;;;;17.18;55.30;102093.31;4231151;28;20422;-58
2023/09/24 07:36:19;;;;;;;;;;;;;;;17.18;55.02;102085.31;4231148;28;20032;-59
2023/09/24 07:38:35;;;;;;;;;;;;;;;17.19;55.16;102087.06;4230791;28;20354;-58
2023/09/24 07:40:37;;;;;;;;;;;;;;;17.19;55.37;102090.59;4230770;28;19984;-57
2023/09/24 07:42:39;;;;;;;;;;;;;;;17.20;55.34;102094.97;4230848;28;19927;-57
2023/09/24 07:44:43;;;;;;;;;;;;;;;17.21;55.36;102094.03;4231000;28;20350;-59
2023/09/24 07:46:45;;;;;;;;;;;;;;;17.22;54.92;102095.78;4230873;28;19924;-58
2023/09/24 07:48:47;;;;;;;;;;;;;;;17.22;55.24;102095.78;4230683;28;19993;-58
2023/09/24 07:50:53;;;;;;;;;;;;;;;17.22;55.23;102098.44;4230616;28;19927;-57
2023/09/24 07:52:56;;;;;;;;;;;;;;;17.22;55.01;102103.75;4230965;28;19924;-58
2023/09/24 07:54:58;;;;;;;;;;;;;;;17.23;54.97;102108.16;4230396;28;19924;-58
2023/09/24 07:56:59;;;;;;;;;;;;;;;17.24;54.91;102109.00;4230939;28;19969;-58
2023/09/24 07:59:02;;;;;;;;;;;;;;;17.24;55.06;102099.25;4230830;28;19931;-58
2023/09/24 08:01:06;;;;;;;;;;;;;;;17.25;55.13;102105.41;4246387;27;19971;-58
2023/09/24 08:03:07;;;;;;;;;;;;;;;17.26;55.07;102103.63;4230730;28;20018;-58
2023/09/24 08:05:09;;;;;;;;;;;;;;;17.24;54.81;102099.25;4230541;28;19934;-58
2023/09/24 08:07:11;;;;;;;;;;;;;;;17.25;54.81;102105.41;4230679;28;19927;-58
2023/09/24 08:09:13;;;;;;;;;;;;;;;17.25;54.80;102105.41;4245832;28;19957;-58
2023/09/24 08:11:27;;;;;;;;;;;;;;;17.26;55.07;102108.97;4230714;28;19923;-58
2023/09/24 08:13:29;;;;;;;;;;;;;;;17.26;54.87;102099.16;4230436;28;19931;-58
2023/09/24 08:15:30;;;;;;;;;;;;;;;17.27;54.79;102108.88;4212523;28;19924;-58
2023/09/24 08:17:34;;;;;;;;;;;;;;;17.27;54.86;102108.88;4212817;28;19924;-58
2023/09/24 08:19:36;;;;;;;;;;;;;;;17.27;54.95;102113.31;4230508;28;19931;-58
2023/09/24 08:21:38;;;;;;;;;;;;;;;17.27;54.61;102106.22;4230478;28;20003;-58
2023/09/24 08:23:39;;;;;;;;;;;;;;;17.27;54.86;102111.53;4230492;28;20301;-59
2023/09/24 08:25:41;;;;;;;;;;;;;;;17.28;54.79;102107.06;4230603;28;19992;-58
2023/09/24 08:27:43;;;;;;;;;;;;;;;17.28;54.86;102102.63;4230748;28;19928;-58
2023/09/24 08:29:47;;;;;;;;;;;;;;;17.28;54.90;102097.31;4230663;28;19923;-58
2023/09/24 08:31:49;;;;;;;;;;;;;;;17.29;54.74;102103.50;4230473;28;20312;-58
2023/09/24 08:33:50;;;;;;;;;;;;;;;17.29;54.83;102104.38;4230531;28;20338;-58
2023/09/24 08:35:52;;;;;;;;;;;;;;;17.31;54.76;102112.28;4230328;28;19927;-58
2023/09/24 08:37:54;;;;;;;;;;;;;;;17.30;54.99;102118.53;4230053;28;20015;-58
2023/09/24 08:39:55;;;;;;;;;;;;;;;17.31;54.77;102112.28;4230306;28;19974;-58
2023/09/24 08:41:58;;;;;;;;;;;;;;;17.31;54.62;102106.97;4231966;28;20342;-58
2023/09/24 08:44:01;;;;;;;;;;;;;;;17.30;54.80;102108.75;4233685;28;20043;-58
2023/09/24 08:46:03;;;;;;;;;;;;;;;17.31;54.47;102105.16;4233705;28;19923;-58
2023/09/24 08:48:07;;;;;;;;;;;;;;;17.31;54.70;102101.66;4233777;28;19979;-58
2023/09/24 08:50:09;;;;;;;;;;;;;;;17.32;54.71;102100.72;4233608;28;20397;-59
2023/09/24 08:52:12;;;;;;;;;;;;;;;17.32;54.80;102109.53;4233144;28;20273;-59
2023/09/24 08:54:14;;;;;;;;;;;;;;;17.33;54.81;102105.13;4233741;28;19939;-57
2023/09/24 08:56:18;;;;;;;;;;;;;;;17.33;54.89;102102.47;4233301;28;19974;-58
2023/09/24 08:58:19;;;;;;;;;;;;;;;17.33;54.66;102107.78;4233491;28;19924;-58
2023/09/24 09:00:21;;;;;;;;;;;;;;;17.33;54.86;102100.66;4233603;28;19924;-58
2023/09/24 09:02:23;;;;;;;;;;;;;;;17.33;54.57;102094.47;4233406;28;20305;-58
2023/09/24 09:04:24;;;;;;;;;;;;;;;17.34;54.68;102097.06;4233547;28;19928;-58
2023/09/24 09:06:30;;;;;;;;;;;;;;;17.34;54.58;102097.06;4232915;28;19928;-58
2023/09/24 09:09:04;;;;;;;;;;;;;;;17.35;54.57;102096.13;4233449;28;20041;-58
2023/09/24 09:11:06;;;;;;;;;;;;;;;17.35;54.66;102093.47;4181165;28;19925;-58
2023/09/24 09:13:13;;;;;;;;;;;;;;;17.35;54.52;102093.47;4181090;28;20228;-58
2023/09/24 09:15:15;;;;;;;;;;;;;;;17.35;54.50;102089.94;4181129;28;19956;-58
2023/09/24 09:17:17;;;;;;;;;;;;;;;17.35;54.66;102090.81;4180939;28;20015;-58
2023/09/24 09:19:19;;;;;;;;;;;;;;;17.35;54.59;102093.47;4181006;28;20363;-58
2023/09/24 09:21:25;;;;;;;;;;;;;;;17.36;54.65;102094.34;4180514;28;20083;-58
2023/09/24 09:23:37;;;;;;;;;;;;;;;17.36;54.65;102084.56;4180927;28;19964;-58
2023/09/24 09:25:58;;;;;;;;;;;;;;;17.36;54.60;102084.56;4180880;28;20394;-58
2023/09/24 09:28:00;;;;;;;;;;;;;;;17.36;54.43;102084.56;4180946;28;19979;-57
2023/09/24 09:30:13;;;;;;;;;;;;;;;17.37;54.66;102088.94;4180962;28;19994;-57
2023/09/24 09:32:14;;;;;;;;;;;;;;;17.37;54.31;102085.44;4180888;28;20430;-58
2023/09/24 09:34:16;;;;;;;;;;;;;;;17.37;54.51;102080.09;4180859;28;19924;-58
2023/09/24 09:36:21;;;;;;;;;;;;;;;17.37;54.60;102080.97;4180341;28;19925;-58
2023/09/24 09:38:25;;;;;;;;;;;;;;;17.38;54.66;102084.50;4180805;28;20387;-58
2023/09/24 09:40:26;;;;;;;;;;;;;;;17.37;54.35;102078.31;4180695;28;19929;-58
2023/09/24 09:42:30;;;;;;;;;;;;;;;17.38;54.59;102076.53;4180748;28;19925;-58
2023/09/24 09:44:32;;;;;;;;;;;;;;;17.39;54.67;102076.44;4180488;28;19932;-58
2023/09/24 09:46:34;;;;;;;;;;;;;;;17.38;54.29;102074.72;4173458;28;20027;-58
2023/09/24 09:48:37;;;;;;;;;;;;;;;17.39;54.48;102071.13;4215820;28;20278;-58
2023/09/24 09:50:42;;;;;;;;;;;;;;;17.40;54.62;102072.00;4215545;28;20377;-58
2023/09/24 09:52:44;;;;;;;;;;;;;;;17.40;54.36;102066.69;4215650;28;19959;-58
2023/09/24 09:54:48;;;;;;;;;;;;;;;17.40;54.48;102066.69;4215921;28;20003;-58
2023/09/24 09:56:50;;;;;;;;;;;;;;;17.40;54.35;102059.56;4215472;28;19924;-58
2023/09/24 09:58:52;;;;;;;;;;;;;;;17.41;54.20;102060.41;4215843;28;19931;-57
2023/09/24 10:00:54;;;;;;;;;;;;;;;17.42;54.26;102059.50;4215814;28;19930;-58
2023/09/24 10:02:56;;;;;;;;;;;;;;;17.42;54.23;102059.50;4215739;28;19946;-58
2023/09/24 10:04:59;;;;;;;;;;;;;;;17.42;54.15;102059.50;4215461;28;20351;-60
2023/09/24 10:07:01;;;;;;;;;;;;;;;17.42;54.41;102050.66;4215556;28;19963;-60
2023/09/24 10:09:22;;;;;;;;;;;;;;;17.42;54.46;102050.66;4215352;28;19924;-60
2023/09/24 10:11:33;;;;;;;;;;;;;;;17.43;54.38;102057.72;4197452;28;19928;-57
2023/09/24 10:13:46;;;;;;;;;;;;;;;17.43;54.55;102050.59;4215362;28;19997;-58
2023/09/24 10:15:47;;;;;;;;;;;;;;;17.43;54.52;102045.28;4215424;28;19997;-57
2023/09/24 10:18:08;;;;;;;;;;;;;;;17.43;54.33;102044.41;4229349;28;19928;-57
2023/09/24 10:20:10;;;;;;;;;;;;;;;17.44;54.34;102030.16;4231966;28;19924;-57
2023/09/24 10:22:32;;;;;;;;;;;;;;;17.44;54.37;102031.03;4213867;28;19932;-57
2023/09/24 10:24:37;;;;;;;;;;;;;;;17.45;54.11;102037.22;4231035;28;19928;-57
2023/09/24 10:26:45;;;;;;;;;;;;;;;17.46;54.19;102031.84;4222906;28;20368;-59
2023/09/24 10:28:50;;;;;;;;;;;;;;;17.47;54.10;102027.38;4231440;28;19924;-57
2023/09/24 10:31:05;;;;;;;;;;;;;;;17.47;54.09;102022.91;4232001;28;19959;-59